Forside
METAR-TAF:

METAR-TAF

Lufthavne :

Tokyo International Airport

Tokyo-Haneda, Japan

Breddekreds: 35-33N, længdekreds: 139-47E, højde: 5 m

Aktuelle vejr

Denne rapport blev lavet for 15 minutter siden, kl. 05:30 UTC
Vind 6 kt fra østsydøst
Temperatur 11°C
Fugtighed 62%
Tryk 1016 hPa
Sigt 10 km eller mere
Nogle få skyer i en højde af 3000 ft
Brudte skyer

METAR: RJTT 290530Z 12006KT 9999 FEW030 BKN/// 11/04 Q1016 NOSIG

Tid: 14:45 (05:45 UTC)

Vejrudsigter

Denne rapport blev lavet for 38 minutter siden, kl. 05:07 UTC
Foreløbig gælder fra 29 på 06 UTC til 01 på 12 UTC
Vind 8 kt fra sydsydvest
Sigt 10 km eller mere
Nogle få skyer i en højde af 2000 ft
Spredte skyer i en højde af 4000 ft
ændring
fra 29 på 12 UTC til 29 på 14 UTC
Vind 12 kt fra nord
ændring
fra 01 på 03 UTC til 01 på 06 UTC
Vind 8 kt fra sydsydøst

TAF: RJTT 290507Z 2906/0112 20008KT 9999 FEW020 SCT040 BECMG 2912/2914 35012KT BECMG 0103/0106 16008KT

Vejrobservationer og prognoser fra mere end 4000 lufthavne (METAR og TAF).

De gule og røde prikker repræsenterer de meteorologiske stationer.

Flyt musen over at se navnet på stationen.

Så klik over at se vejr observationer og prognoser.

At skifte det kort: Klik på de grønne knapper med et sort kors for at zoome ind; på den grønne knap med en bindestreg for at zoome ud; eller på de grønne pile for tilstødende kort.


METAR-TAF: